Terminal Aerodrome Forecast
Issued by NWS Burlington, VT

Current Version | Previous Version | Text Only | Print | Product List | Glossary On
Versions: 1 2 3 4 5 6 7 8 9 10 11 12 13 14 15 16 17 18 19
000 FTUS41 KBTV 260520 TAFBTV TAF KBTV 260520Z 2606/2706 00000KT P6SM SKC FM261600 16006KT P6SM SCT150 FM261900 17006KT P6SM VCSH BKN060 OVC100 FM270000 16007KT 3SM -RA BR OVC030 FM270400 16011KT 3SM -RA BR OVC030=

USA.gov is the U.S. government's official web portal to all federal, state and local government web resources and services.